Time;durP1;ratioP1;P1;durP2;ratioP2;P2;SDS_P1;SDS_P2;PMS_P1;PMS_P2;Temp;Humidity;BMP_temperature;BMP_pressure;BME280_temperature;BME280_humidity;BME280_pressure;Samples;Min_cycle;Max_cycle;Signal;HPM_P1;HPM_P2
2020/12/24 00:00:57;;;;;;;1.60;0.70;;;11.00;42.20;;;;;;5090942;28;20180;-74
2020/12/24 00:03:23;;;;;;;2.20;0.80;;;11.00;42.90;;;;;;5091464;28;20255;-74
2020/12/24 00:05:48;;;;;;;1.87;0.63;;;10.90;42.90;;;;;;5073016;28;20212;-75
2020/12/24 00:08:14;;;;;;;1.00;0.50;;;10.90;43.70;;;;;;5091236;28;20173;-74
2020/12/24 00:10:39;;;;;;;1.00;0.50;;;10.90;44.30;;;;;;5090986;28;20252;-74
2020/12/24 00:13:05;;;;;;;1.20;0.60;;;10.80;44.50;;;;;;5072989;28;20188;-74
2020/12/24 00:15:31;;;;;;;1.57;0.73;;;10.90;44.40;;;;;;5091388;28;20180;-74
2020/12/24 00:17:56;;;;;;;1.10;0.60;;;10.80;44.00;;;;;;5091324;28;20531;-74
2020/12/24 00:20:22;;;;;;;1.77;0.60;;;10.80;44.10;;;;;;5090966;28;20240;-74
2020/12/24 00:22:47;;;;;;;1.73;0.77;;;10.90;44.00;;;;;;5091274;28;20692;-74
2020/12/24 00:25:13;;;;;;;1.17;0.50;;;10.90;44.20;;;;;;5091327;28;20567;-75
2020/12/24 00:27:38;;;;;;;1.00;0.50;;;10.90;44.10;;;;;;5091079;28;20553;-74
2020/12/24 00:30:05;;;;;;;1.60;0.80;;;11.00;44.00;;;;;;5091203;28;20215;-74
2020/12/24 00:32:30;;;;;;;1.00;0.50;;;11.00;43.90;;;;;;5090988;28;20672;-74
2020/12/24 00:34:56;;;;;;;2.23;1.07;;;11.00;44.10;;;;;;5072455;28;20417;-74
2020/12/24 00:37:21;;;;;;;2.10;0.77;;;11.00;44.10;;;;;;5091135;28;20183;-74
2020/12/24 00:39:47;;;;;;;1.40;1.00;;;11.00;44.10;;;;;;5090735;28;20642;-75
2020/12/24 00:42:13;;;;;;;1.23;0.77;;;11.00;44.20;;;;;;5090857;28;20272;-73
2020/12/24 00:44:38;;;;;;;2.60;1.43;;;11.00;44.10;;;;;;5090824;28;20731;-74
2020/12/24 00:47:04;;;;;;;2.20;1.00;;;11.00;44.40;;;;;;5090807;28;20201;-74
2020/12/24 00:49:29;;;;;;;3.30;1.40;;;10.90;45.20;;;;;;5090486;28;20192;-74
2020/12/24 00:51:55;;;;;;;1.93;0.87;;;10.80;46.00;;;;;;5090663;28;20203;-74
2020/12/24 00:54:20;;;;;;;1.30;0.90;;;10.80;46.00;;;;;;5090793;28;20547;-74
2020/12/24 00:56:46;;;;;;;1.60;0.70;;;10.70;46.30;;;;;;5090816;28;20177;-74
2020/12/24 00:59:11;;;;;;;1.33;0.70;;;10.70;46.80;;;;;;5090396;28;20278;-75
2020/12/24 01:01:37;;;;;;;2.30;1.00;;;10.80;46.60;;;;;;5090559;28;20251;-74
2020/12/24 01:04:03;;;;;;;1.40;1.03;;;10.80;46.70;;;;;;5072400;28;20173;-74
2020/12/24 01:06:28;;;;;;;1.67;0.80;;;10.80;46.20;;;;;;5090598;28;20454;-74
2020/12/24 01:08:54;;;;;;;1.27;0.57;;;10.90;45.60;;;;;;5072270;28;20646;-74
2020/12/24 01:11:20;;;;;;;1.40;0.97;;;10.80;45.70;;;;;;5090490;28;20251;-75
2020/12/24 01:13:45;;;;;;;1.87;0.87;;;10.80;46.10;;;;;;5090595;28;20222;-74
2020/12/24 01:16:11;;;;;;;2.40;0.77;;;10.70;47.00;;;;;;5090675;28;20180;-74
2020/12/24 01:18:36;;;;;;;1.47;0.73;;;10.70;47.00;;;;;;5090484;28;20189;-75
2020/12/24 01:21:02;;;;;;;0.90;0.40;;;10.60;45.20;;;;;;5090338;28;20195;-74
2020/12/24 01:23:28;;;;;;;1.00;0.50;;;10.60;45.30;;;;;;5090641;28;20667;-75
2020/12/24 01:25:53;;;;;;;1.13;0.50;;;10.60;44.40;;;;;;5090564;28;20548;-74
2020/12/24 01:28:19;;;;;;;1.00;0.53;;;10.60;40.70;;;;;;5090583;28;20175;-74
2020/12/24 01:30:44;;;;;;;1.73;0.77;;;10.50;41.00;;;;;;5072211;28;20652;-73
2020/12/24 01:33:10;;;;;;;2.00;0.90;;;10.40;37.70;;;;;;5090379;28;20198;-74
2020/12/24 01:35:35;;;;;;;1.10;0.40;;;10.20;37.30;;;;;;5090448;28;20179;-73
2020/12/24 01:38:01;;;;;;;1.10;0.50;;;10.10;36.00;;;;;;5090440;28;20225;-73
2020/12/24 01:40:27;;;;;;;1.10;0.53;;;10.00;34.70;;;;;;5090156;28;20269;-74
2020/12/24 01:42:52;;;;;;;1.40;0.60;;;9.90;35.10;;;;;;5090304;28;20195;-74
2020/12/24 01:45:18;;;;;;;3.73;1.03;;;9.80;35.00;;;;;;5072151;28;20205;-73
2020/12/24 01:47:43;;;;;;;1.00;0.50;;;9.70;33.60;;;;;;5091354;28;20174;-73
2020/12/24 01:50:09;;;;;;;1.10;0.67;;;9.70;33.00;;;;;;5093667;28;20176;-73
2020/12/24 01:52:39;;;;;;;8.90;1.00;;;9.50;31.50;;;;;;5075740;28;20200;-74
2020/12/24 01:55:14;;;;;;;1.87;0.70;;;9.40;32.50;;;;;;5094085;28;20401;-74
2020/12/24 01:57:39;;;;;;;1.40;0.63;;;9.40;32.60;;;;;;5076035;28;20934;-73
2020/12/24 02:00:07;;;;;;;1.10;0.50;;;9.30;34.30;;;;;;5093657;28;20474;-73
2020/12/24 02:02:32;;;;;;;2.47;0.80;;;9.20;35.70;;;;;;5093582;28;20246;-74
2020/12/24 02:04:58;;;;;;;1.30;0.60;;;9.20;35.70;;;;;;5093850;28;20456;-73
2020/12/24 02:07:24;;;;;;;2.20;0.77;;;9.10;36.40;;;;;;5093766;28;20171;-73
2020/12/24 02:09:50;;;;;;;3.00;1.03;;;9.10;36.40;;;;;;5093544;28;20176;-73
2020/12/24 02:12:19;;;;;;;1.97;0.80;;;9.10;36.90;;;;;;5093583;28;20188;-73
2020/12/24 02:14:45;;;;;;;3.30;1.10;;;9.10;37.50;;;;;;5093405;28;20417;-74
2020/12/24 02:17:11;;;;;;;2.67;1.10;;;9.00;37.70;;;;;;5093321;28;20436;-73
2020/12/24 02:19:37;;;;;;;1.70;0.90;;;9.00;37.80;;;;;;5093148;28;20429;-74
2020/12/24 02:22:03;;;;;;;1.97;0.90;;;8.90;37.70;;;;;;5093298;28;20436;-74
2020/12/24 02:24:29;;;;;;;4.70;1.00;;;8.90;37.30;;;;;;5093339;28;20195;-74
2020/12/24 02:26:55;;;;;;;1.77;1.03;;;8.90;37.60;;;;;;5093244;28;20453;-74
2020/12/24 02:29:21;;;;;;;1.43;0.73;;;8.80;37.70;;;;;;5092980;28;20668;-73
2020/12/24 02:31:47;;;;;;;1.97;0.87;;;8.80;38.70;;;;;;5092895;28;20606;-74
2020/12/24 02:34:13;;;;;;;2.13;0.70;;;8.80;38.70;;;;;;5093122;28;20436;-74
2020/12/24 02:36:39;;;;;;;1.33;0.80;;;8.90;39.40;;;;;;5093095;28;20526;-74
2020/12/24 02:39:05;;;;;;;2.13;0.90;;;8.90;39.50;;;;;;5092882;28;20594;-73
2020/12/24 02:41:30;;;;;;;5.00;1.60;;;9.00;39.70;;;;;;5092698;28;20212;-74
2020/12/24 02:43:56;;;;;;;1.30;0.60;;;8.90;40.10;;;;;;5092982;28;20789;-73
2020/12/24 02:46:22;;;;;;;1.17;0.60;;;8.90;40.40;;;;;;5092917;28;20206;-73
2020/12/24 02:48:47;;;;;;;1.57;0.93;;;8.90;41.10;;;;;;5092470;28;20656;-74
2020/12/24 02:51:16;;;;;;;3.10;0.80;;;8.80;41.20;;;;;;5092648;28;20197;-74
2020/12/24 02:53:41;;;;;;;2.20;0.97;;;8.70;41.20;;;;;;5074601;28;20646;-73
2020/12/24 02:56:07;;;;;;;1.53;0.70;;;8.70;41.20;;;;;;5092669;28;20793;-73
2020/12/24 02:58:33;;;;;;;2.17;0.73;;;8.70;41.40;;;;;;5092066;28;20177;-73
2020/12/24 03:00:58;;;;;;;2.00;0.83;;;8.70;41.20;;;;;;5091974;28;20257;-74
2020/12/24 03:03:25;;;;;;;2.17;0.90;;;8.60;41.60;;;;;;5074425;28;20297;-73
2020/12/24 03:05:52;;;;;;;1.20;0.50;;;8.60;41.80;;;;;;5092802;28;20465;-74
2020/12/24 03:08:18;;;;;;;1.10;0.60;;;8.60;42.00;;;;;;5074284;28;20428;-73
2020/12/24 03:10:44;;;;;;;1.83;0.70;;;8.60;42.00;;;;;;5092106;28;20500;-73
2020/12/24 03:13:09;;;;;;;1.27;0.70;;;8.60;41.70;;;;;;5092807;28;20519;-74
2020/12/24 03:15:35;;;;;;;1.30;0.63;;;8.50;41.70;;;;;;5092468;28;20426;-73
2020/12/24 03:18:00;;;;;;;1.97;0.70;;;8.50;41.90;;;;;;5092280;28;20177;-73
2020/12/24 03:20:26;;;;;;;1.83;0.83;;;8.50;42.20;;;;;;5073805;28;20176;-73
2020/12/24 03:22:51;;;;;;;1.70;0.60;;;8.50;43.10;;;;;;5092144;28;20196;-73
2020/12/24 03:25:17;;;;;;;2.03;0.80;;;8.50;42.40;;;;;;5073912;28;20210;-74
2020/12/24 03:27:42;;;;;;;1.80;0.93;;;8.40;42.80;;;;;;5092136;28;20200;-74
2020/12/24 03:30:09;;;;;;;1.73;0.80;;;8.40;43.30;;;;;;5091809;28;20188;-73
2020/12/24 03:32:35;;;;;;;1.20;0.63;;;8.40;43.10;;;;;;5091828;28;20193;-74
2020/12/24 03:35:01;;;;;;;1.10;0.60;;;8.40;42.00;;;;;;5091950;28;20784;-74
2020/12/24 03:37:27;;;;;;;1.50;0.60;;;8.40;42.10;;;;;;5091917;28;20928;-74
2020/12/24 03:39:52;;;;;;;1.40;0.70;;;8.40;41.90;;;;;;5073464;28;20419;-73
2020/12/24 03:42:18;;;;;;;1.30;0.53;;;8.40;39.20;;;;;;5091741;28;20203;-74
2020/12/24 03:44:44;;;;;;;1.97;0.80;;;8.50;38.50;;;;;;5091710;28;20174;-73
2020/12/24 03:47:09;;;;;;;1.10;0.50;;;8.50;35.90;;;;;;5091543;28;20666;-74
2020/12/24 03:49:35;;;;;;;1.40;0.77;;;8.60;34.80;;;;;;5091570;28;20592;-75
2020/12/24 03:52:00;;;;;;;1.87;1.20;;;8.60;33.60;;;;;;5073476;28;20622;-74
2020/12/24 03:54:26;;;;;;;1.43;0.90;;;8.70;32.90;;;;;;5091659;28;20178;-74
2020/12/24 03:56:51;;;;;;;1.00;0.50;;;8.70;33.50;;;;;;5091472;28;20177;-74
2020/12/24 03:59:17;;;;;;;1.13;0.57;;;8.70;33.70;;;;;;5072871;28;20239;-74
2020/12/24 04:01:42;;;;;;;6.60;0.90;;;8.70;34.20;;;;;;5091251;28;20220;-74
2020/12/24 04:04:08;;;;;;;1.30;0.63;;;8.70;34.50;;;;;;5091380;28;20185;-74
2020/12/24 04:06:34;;;;;;;1.93;0.60;;;8.70;34.10;;;;;;5091303;28;20668;-74
2020/12/24 04:08:59;;;;;;;1.47;0.60;;;8.70;34.20;;;;;;5073021;28;20180;-75
2020/12/24 04:11:25;;;;;;;1.00;0.50;;;8.70;34.80;;;;;;5090411;28;20206;-74
2020/12/24 04:13:50;;;;;;;1.73;0.80;;;8.70;33.80;;;;;;5073140;28;20251;-74
2020/12/24 04:16:20;;;;;;;1.73;0.60;;;8.70;34.20;;;;;;5090937;28;20201;-74
2020/12/24 04:18:45;;;;;;;1.70;0.80;;;8.70;34.40;;;;;;5090893;28;20173;-74
2020/12/24 04:21:11;;;;;;;1.10;0.50;;;8.70;34.10;;;;;;5090947;28;20433;-74
2020/12/24 04:23:36;;;;;;;1.50;0.60;;;8.70;33.80;;;;;;5091021;28;20565;-73
2020/12/24 04:26:02;;;;;;;1.20;0.60;;;8.70;33.80;;;;;;5072898;28;20222;-73
2020/12/24 04:28:28;;;;;;;1.80;0.77;;;8.70;33.90;;;;;;5090978;28;20187;-73
2020/12/24 04:30:53;;;;;;;1.87;0.77;;;8.70;33.70;;;;;;5090753;28;20588;-73
2020/12/24 04:33:19;;;;;;;1.10;0.60;;;8.70;32.90;;;;;;5090937;28;20671;-73
2020/12/24 04:35:44;;;;;;;3.63;1.43;;;8.70;32.00;;;;;;5090802;28;20205;-73
2020/12/24 04:38:10;;;;;;;2.60;0.70;;;8.70;31.90;;;;;;5090941;28;20209;-73
2020/12/24 04:40:35;;;;;;;1.80;1.10;;;8.70;32.70;;;;;;5072479;28;20186;-73
2020/12/24 04:43:03;;;;;;;1.30;0.70;;;8.70;32.50;;;;;;5091535;28;20199;-73
2020/12/24 04:45:31;;;;;;;1.33;0.80;;;8.70;32.30;;;;;;5095019;28;20404;-73
2020/12/24 04:47:58;;;;;;;2.40;1.27;;;8.70;32.40;;;;;;5098243;28;20424;-73
2020/12/24 04:50:28;;;;;;;1.23;0.73;;;8.70;31.20;;;;;;5091217;28;20408;-73
2020/12/24 04:52:57;;;;;;;3.83;1.30;;;8.70;30.80;;;;;;5091178;28;20455;-73
2020/12/24 04:55:23;;;;;;;1.60;0.90;;;8.70;30.00;;;;;;5094207;28;20457;-72
2020/12/24 04:57:49;;;;;;;1.87;1.30;;;8.70;30.50;;;;;;5094243;28;20502;-73
2020/12/24 05:00:16;;;;;;;3.60;1.33;;;8.70;29.40;;;;;;5090593;28;20492;-73
2020/12/24 05:02:42;;;;;;;2.17;1.43;;;8.60;29.90;;;;;;5117656;22;20496;-71
2020/12/24 05:05:08;;;;;;;1.70;1.27;;;8.60;30.10;;;;;;5111408;28;20495;-71
2020/12/24 05:07:33;;;;;;;2.20;1.23;;;8.60;30.40;;;;;;5111406;28;20201;-71
2020/12/24 05:09:59;;;;;;;2.73;1.30;;;8.60;30.00;;;;;;5110985;28;20185;-73
2020/12/24 05:12:32;;;;;;;2.37;1.40;;;8.60;30.70;;;;;;5110110;28;20200;-71
2020/12/24 05:14:58;;;;;;;2.40;1.50;;;8.60;30.80;;;;;;5111573;28;20178;-71
2020/12/24 05:17:24;;;;;;;3.03;1.60;;;8.60;30.80;;;;;;5111502;28;20411;-71
2020/12/24 05:20:03;;;;;;;5.47;1.30;;;8.60;30.20;;;;;;5111110;28;20403;-71
2020/12/24 05:22:28;;;;;;;1.50;1.10;;;8.60;31.50;;;;;;5113432;28;20793;-71
2020/12/24 05:25:11;;;;;;;2.20;1.43;;;8.60;30.80;;;;;;5113912;28;20414;-71
2020/12/24 05:27:37;;;;;;;3.00;1.37;;;8.60;30.80;;;;;;5114039;28;20221;-71
2020/12/24 05:30:03;;;;;;;2.40;1.33;;;8.60;30.70;;;;;;5122352;28;20394;-73
2020/12/24 05:32:30;;;;;;;2.07;1.20;;;8.60;30.70;;;;;;5130319;28;20482;-72
2020/12/24 05:35:09;;;;;;;4.40;2.23;;;;;;;;;;5129362;28;20485;-72
2020/12/24 05:37:35;;;;;;;4.63;1.20;;;8.60;30.40;;;;;;5130005;28;20476;-71
2020/12/24 05:40:19;;;;;;;4.17;2.27;;;8.50;29.40;;;;;;5128154;28;20744;-72
2020/12/24 05:42:57;;;;;;;3.67;2.07;;;;;;;;;;5128146;28;20188;-72
2020/12/24 05:45:28;;;;;;;4.47;2.03;;;8.40;29.30;;;;;;5130542;28;20408;-73
2020/12/24 05:48:13;;;;;;;2.07;1.87;;;8.40;28.40;;;;;;5130366;28;20426;-72
2020/12/24 05:50:43;;;;;;;2.97;1.50;;;8.40;28.50;;;;;;5119290;28;20410;-71
2020/12/24 05:53:19;;;;;;;2.23;1.40;;;8.30;28.80;;;;;;5114459;28;20433;-72
2020/12/24 05:55:45;;;;;;;2.10;1.67;;;8.30;28.50;;;;;;5112935;28;20830;-71
2020/12/24 05:58:10;;;;;;;3.07;1.77;;;8.30;29.00;;;;;;5114468;28;20411;-70
2020/12/24 06:00:41;;;;;;;3.43;1.90;;;8.30;29.00;;;;;;5114086;28;20221;-71
2020/12/24 06:03:18;;;;;;;3.53;1.63;;;8.30;29.50;;;;;;5113956;28;20741;-73
2020/12/24 06:05:53;;;;;;;3.63;1.20;;;8.40;29.40;;;;;;5114093;28;20422;-71
2020/12/24 06:08:23;;;;;;;4.23;1.47;;;8.40;29.10;;;;;;5114015;28;20906;-72
2020/12/24 06:11:04;;;;;;;2.43;1.67;;;8.50;29.40;;;;;;5113733;28;20434;-70
2020/12/24 06:13:42;;;;;;;2.00;1.23;;;8.60;29.00;;;;;;5112656;28;20422;-71
2020/12/24 06:16:12;;;;;;;2.57;1.07;;;8.60;28.90;;;;;;5114017;28;20478;-71
2020/12/24 06:18:43;;;;;;;2.67;1.87;;;8.70;29.00;;;;;;5113790;28;20406;-71
2020/12/24 06:21:12;;;;;;;1.73;1.57;;;8.70;28.80;;;;;;5113657;28;20498;-72
2020/12/24 06:23:42;;;;;;;2.30;1.70;;;8.60;27.80;;;;;;5113788;28;20471;-73
2020/12/24 06:26:10;;;;;;;3.40;1.60;;;8.60;27.10;;;;;;5119690;28;20424;-73
2020/12/24 06:28:38;;;;;;;2.60;2.03;;;8.60;26.60;;;;;;5130156;28;20440;-69
2020/12/24 06:31:05;;;;;;;2.37;2.17;;;8.50;26.50;;;;;;5128920;28;20416;-71
2020/12/24 06:33:31;;;;;;;2.17;1.90;;;8.50;27.00;;;;;;5126283;28;20411;-72
2020/12/24 06:35:57;;;;;;;3.70;2.00;;;8.50;26.80;;;;;;5128791;28;20460;-70
2020/12/24 06:38:44;;;;;;;1.90;1.70;;;8.50;26.50;;;;;;5127862;28;20165;-70
2020/12/24 06:41:37;;;;;;;3.23;2.10;;;8.50;25.80;;;;;;5129445;28;20405;-72
2020/12/24 06:44:06;;;;;;;4.63;2.10;;;8.50;25.20;;;;;;5125972;27;20426;-72
2020/12/24 06:46:57;;;;;;;3.40;2.17;;;8.50;25.90;;;;;;5129400;28;20498;-73
2020/12/24 06:49:30;;;;;;;2.23;1.90;;;8.40;34.50;;;;;;5130842;28;20415;-74
2020/12/24 06:51:56;;;;;;;3.77;2.40;;;8.30;25.30;;;;;;5129047;28;20440;-73
2020/12/24 06:54:26;;;;;;;4.67;2.60;;;8.30;25.40;;;;;;5121072;28;20854;-71
2020/12/24 06:57:23;;;;;;;3.73;2.33;;;8.20;25.30;;;;;;5113280;28;20205;-71
2020/12/24 07:00:09;;;;;;;3.87;2.47;;;8.20;25.10;;;;;;5112114;28;20422;-71
2020/12/24 07:02:35;;;;;;;10.20;2.73;;;8.10;25.80;;;;;;5113625;28;20981;-72
2020/12/24 07:05:00;;;;;;;7.03;3.00;;;8.10;25.40;;;;;;5112437;28;20419;-71
2020/12/24 07:07:47;;;;;;;2.97;2.50;;;;;;;;;;5112182;28;20172;-71
2020/12/24 07:10:41;;;;;;;3.10;2.27;;;8.00;25.20;;;;;;5121724;28;20177;-70
2020/12/24 07:13:06;;;;;;;4.13;2.87;;;8.00;26.00;;;;;;5130986;28;20430;-72
2020/12/24 07:15:42;;;;;;;4.63;2.60;;;7.90;25.40;;;;;;5131275;28;21157;-71
2020/12/24 07:18:11;;;;;;;6.50;3.07;;;7.90;25.40;;;;;;5130525;28;20200;-71
2020/12/24 07:20:38;;;;;;;2.60;2.40;;;7.90;25.00;;;;;;5129472;28;20510;-71
2020/12/24 07:23:04;;;;;;;2.90;2.57;;;8.00;25.20;;;;;;5130542;28;20431;-70
2020/12/24 07:25:34;;;;;;;2.80;2.60;;;8.00;25.10;;;;;;5128974;28;20822;-72
2020/12/24 07:28:00;;;;;;;5.93;2.73;;;8.10;25.10;;;;;;5129574;28;20414;-73
2020/12/24 07:30:26;;;;;;;4.07;2.97;;;8.10;24.80;;;;;;5127939;28;20415;-73
2020/12/24 07:32:53;;;;;;;7.33;3.37;;;8.20;24.30;;;;;;5132617;28;20184;-70
2020/12/24 07:35:19;;;;;;;7.07;3.60;;;8.20;25.20;;;;;;5133183;28;20178;-72
2020/12/24 07:37:48;;;;;;;3.53;2.50;;;8.30;25.00;;;;;;5129832;28;20408;-74
2020/12/24 07:40:14;;;;;;;3.87;2.60;;;8.30;24.80;;;;;;5129821;28;20173;-74
2020/12/24 07:42:39;;;;;;;2.60;2.13;;;8.30;24.80;;;;;;5130578;28;20652;-71
2020/12/24 07:45:05;;;;;;;4.60;2.43;;;8.40;25.10;;;;;;5129922;28;20412;-71
2020/12/24 07:47:31;;;;;;;5.00;2.53;;;8.40;24.80;;;;;;5130155;28;20165;-72
2020/12/24 07:49:56;;;;;;;2.53;2.20;;;8.40;24.90;;;;;;5119793;28;20189;-72
2020/12/24 07:52:22;;;;;;;5.50;2.90;;;8.40;25.10;;;;;;5112925;28;20446;-73
2020/12/24 07:54:48;;;;;;;3.47;3.17;;;8.50;24.60;;;;;;5114208;28;20173;-72
2020/12/24 07:57:23;;;;;;;3.87;3.50;;;8.50;24.00;;;;;;5120872;28;20210;-73
2020/12/24 07:59:57;;;;;;;6.80;3.30;;;8.60;24.30;;;;;;5113956;28;20176;-73
2020/12/24 08:02:23;;;;;;;2.63;2.40;;;8.60;24.10;;;;;;5113333;28;20787;-72
2020/12/24 08:04:53;;;;;;;3.10;2.80;;;8.80;24.40;;;;;;5114344;28;20422;-73
2020/12/24 08:07:19;;;;;;;5.20;2.90;;;8.80;24.10;;;;;;5124177;28;20182;-73
2020/12/24 08:09:45;;;;;;;3.27;3.00;;;8.90;24.70;;;;;;5125858;28;20427;-73
2020/12/24 08:12:18;;;;;;;3.27;3.00;;;8.90;23.20;;;;;;5126415;28;20292;-71
2020/12/24 08:14:44;;;;;;;6.60;3.67;;;8.90;24.00;;;;;;5123431;28;20184;-72
2020/12/24 08:17:24;;;;;;;3.70;3.40;;;8.90;23.60;;;;;;5114227;28;20907;-72
2020/12/24 08:19:59;;;;;;;3.43;3.13;;;9.00;23.70;;;;;;5114890;28;20175;-71
2020/12/24 08:22:38;;;;;;;3.07;2.73;;;9.00;24.10;;;;;;5116796;28;20445;-71
2020/12/24 08:25:06;;;;;;;10.00;2.60;;;9.10;24.30;;;;;;5127959;28;20400;-73
2020/12/24 08:27:32;;;;;;;4.40;2.93;;;9.10;24.40;;;;;;5119544;28;20417;-72
2020/12/24 08:29:59;;;;;;;2.70;2.50;;;9.20;24.30;;;;;;5114030;28;20407;-72
2020/12/24 08:32:26;;;;;;;3.47;2.87;;;9.20;24.60;;;;;;5119823;28;20448;-72
2020/12/24 08:34:52;;;;;;;4.33;2.90;;;9.30;24.80;;;;;;5112640;28;20427;-72
2020/12/24 08:37:28;;;;;;;3.00;2.70;;;9.30;25.20;;;;;;5113815;28;20607;-71
2020/12/24 08:39:53;;;;;;;8.70;2.83;;;9.30;25.20;;;;;;5111577;28;20209;-72
2020/12/24 08:42:22;;;;;;;3.53;2.67;;;9.30;25.40;;;;;;5110386;28;20472;-72
2020/12/24 08:44:55;;;;;;;2.20;2.00;;;9.50;25.50;;;;;;5110964;28;20177;-72
2020/12/24 08:47:21;;;;;;;3.30;2.97;;;9.70;26.10;;;;;;5110931;28;20791;-72
2020/12/24 08:49:47;;;;;;;3.30;2.00;;;9.80;26.00;;;;;;5110704;28;20429;-71
2020/12/24 08:52:22;;;;;;;2.20;2.00;;;9.80;26.20;;;;;;5111241;28;20200;-71
2020/12/24 08:54:59;;;;;;;2.13;2.00;;;9.80;25.30;;;;;;5112132;28;20528;-72
2020/12/24 08:57:25;;;;;;;3.30;2.50;;;9.90;25.50;;;;;;5115551;28;20819;-72
2020/12/24 09:00:02;;;;;;;3.83;2.50;;;9.90;25.80;;;;;;5115225;28;20471;-71
2020/12/24 09:02:32;;;;;;;2.00;1.90;;;9.70;25.60;;;;;;5117467;28;20451;-71
2020/12/24 09:04:59;;;;;;;6.20;2.30;;;9.40;25.90;;;;;;5117139;28;20416;-71
2020/12/24 09:07:43;;;;;;;2.43;2.07;;;9.20;26.50;;;;;;5116594;28;20410;-71
2020/12/24 09:10:25;;;;;;;1.80;1.70;;;9.00;26.50;;;;;;5116526;28;20418;-71
2020/12/24 09:12:56;;;;;;;2.10;1.90;;;8.90;26.80;;;;;;5116570;28;20490;-71
2020/12/24 09:15:26;;;;;;;1.37;1.10;;;8.80;26.70;;;;;;5116305;28;20471;-74
2020/12/24 09:17:57;;;;;;;2.47;1.50;;;8.70;26.60;;;;;;5116491;28;20425;-72
2020/12/24 09:20:28;;;;;;;3.20;1.77;;;8.70;26.90;;;;;;5115233;28;20477;-72
2020/12/24 09:23:15;;;;;;;2.37;1.60;;;8.70;27.10;;;;;;5115034;28;20498;-73
2020/12/24 09:25:45;;;;;;;1.97;1.47;;;8.70;27.60;;;;;;5115906;28;20483;-72
2020/12/24 09:28:22;;;;;;;1.50;1.40;;;8.70;27.10;;;;;;5116576;28;20430;-72
2020/12/24 09:30:49;;;;;;;3.37;1.57;;;8.70;26.70;;;;;;5116766;28;20472;-73
2020/12/24 09:33:14;;;;;;;3.50;2.30;;;8.70;26.60;;;;;;5114977;28;20438;-72
2020/12/24 09:35:40;;;;;;;2.30;1.83;;;8.70;26.70;;;;;;5116527;28;20504;-72
2020/12/24 09:38:06;;;;;;;2.03;1.70;;;8.80;26.70;;;;;;5119813;28;20177;-73
2020/12/24 09:40:32;;;;;;;2.13;1.30;;;8.80;26.70;;;;;;5135719;28;20412;-74
2020/12/24 09:42:58;;;;;;;1.40;1.30;;;8.90;26.80;;;;;;5124409;28;20427;-72
2020/12/24 09:45:23;;;;;;;1.50;1.40;;;8.90;26.40;;;;;;5116813;28;20261;-72
2020/12/24 09:47:49;;;;;;;2.33;1.80;;;9.00;26.60;;;;;;5116585;28;20260;-71
2020/12/24 09:50:15;;;;;;;1.90;1.80;;;9.00;26.80;;;;;;5116868;28;20429;-71
2020/12/24 09:52:41;;;;;;;3.20;1.43;;;9.10;26.70;;;;;;5117663;28;20432;-71
2020/12/24 09:55:07;;;;;;;2.67;1.77;;;9.20;26.30;;;;;;5116749;28;20236;-74
2020/12/24 09:57:33;;;;;;;2.10;1.90;;;9.20;26.10;;;;;;5115649;28;20175;-72
2020/12/24 10:00:00;;;;;;;2.30;2.10;;;9.20;25.60;;;;;;5114130;28;20417;-71
2020/12/24 10:02:26;;;;;;;1.97;1.83;;;9.30;25.90;;;;;;5114301;28;20509;-70
2020/12/24 10:04:53;;;;;;;1.97;1.70;;;9.30;25.70;;;;;;5115024;28;20412;-70
2020/12/24 10:07:22;;;;;;;2.37;1.70;;;9.30;26.00;;;;;;5113890;28;20424;-71
2020/12/24 10:09:51;;;;;;;2.37;1.70;;;9.30;26.00;;;;;;5113161;28;20411;-70
2020/12/24 10:12:20;;;;;;;2.17;1.50;;;9.30;26.00;;;;;;5115947;28;20432;-71
2020/12/24 10:14:46;;;;;;;2.37;1.57;;;9.20;27.00;;;;;;5113891;28;20511;-70
2020/12/24 10:17:12;;;;;;;2.17;1.20;;;9.10;26.60;;;;;;5114131;28;20460;-71
2020/12/24 10:19:38;;;;;;;2.50;1.83;;;9.10;26.10;;;;;;5112386;28;20420;-71
2020/12/24 10:22:04;;;;;;;1.60;1.50;;;9.00;26.40;;;;;;5113831;28;20431;-71
2020/12/24 10:24:29;;;;;;;5.80;2.17;;;9.00;26.80;;;;;;5112540;28;20174;-72
2020/12/24 10:26:55;;;;;;;2.87;1.40;;;9.00;26.80;;;;;;5113821;28;20173;-72
2020/12/24 10:29:22;;;;;;;2.23;1.53;;;9.00;26.80;;;;;;5113645;28;20610;-72
2020/12/24 10:31:47;;;;;;;2.40;2.00;;;9.10;26.90;;;;;;5113620;28;20431;-71
2020/12/24 10:34:13;;;;;;;1.60;1.50;;;9.10;26.50;;;;;;5113617;28;20750;-72
2020/12/24 10:36:39;;;;;;;2.03;1.67;;;9.10;26.90;;;;;;5113548;28;20208;-71
2020/12/24 10:39:07;;;;;;;1.47;1.37;;;9.20;26.30;;;;;;5113928;28;20403;-71
2020/12/24 10:41:33;;;;;;;2.50;1.60;;;9.10;26.70;;;;;;5113395;28;20210;-71
2020/12/24 10:43:59;;;;;;;3.83;2.03;;;9.10;26.50;;;;;;5112218;28;20421;-72
2020/12/24 10:46:25;;;;;;;3.30;2.07;;;9.10;26.50;;;;;;5113332;28;20461;-72
2020/12/24 10:48:51;;;;;;;2.40;1.57;;;9.20;26.30;;;;;;5113536;28;20832;-72
2020/12/24 10:51:16;;;;;;;1.80;1.47;;;9.30;26.60;;;;;;5112460;28;20226;-72
2020/12/24 10:53:42;;;;;;;1.57;1.47;;;9.30;26.50;;;;;;5112266;28;20426;-72
2020/12/24 10:56:15;;;;;;;1.70;1.60;;;9.30;26.30;;;;;;5113484;28;20209;-73
2020/12/24 10:58:44;;;;;;;2.63;1.77;;;9.30;26.60;;;;;;5113389;28;20197;-73
2020/12/24 11:01:11;;;;;;;1.77;1.63;;;9.30;26.60;;;;;;5112887;28;20437;-72
2020/12/24 11:03:37;;;;;;;1.87;1.53;;;9.30;26.30;;;;;;5100034;22;20575;-74
2020/12/24 11:06:06;;;;;;;3.27;1.70;;;9.20;26.20;;;;;;5092646;28;21009;-74
2020/12/24 11:08:33;;;;;;;1.93;1.70;;;9.20;26.90;;;;;;5092735;28;20461;-74
2020/12/24 11:11:00;;;;;;;1.30;1.20;;;9.10;26.90;;;;;;5091979;28;20400;-74
2020/12/24 11:13:26;;;;;;;1.33;1.07;;;9.20;27.00;;;;;;5073716;28;20432;-74
2020/12/24 11:15:52;;;;;;;1.97;1.50;;;9.00;26.90;;;;;;5073874;28;20459;-74
2020/12/24 11:18:17;;;;;;;2.07;1.40;;;9.00;26.80;;;;;;5091975;28;20418;-74
2020/12/24 11:20:43;;;;;;;1.37;1.27;;;9.00;26.90;;;;;;5073298;28;20421;-74
2020/12/24 11:23:08;;;;;;;1.87;1.60;;;9.10;26.90;;;;;;5091950;28;20241;-74
2020/12/24 11:25:34;;;;;;;1.50;1.20;;;9.10;26.90;;;;;;5092180;28;20181;-74
2020/12/24 11:28:00;;;;;;;1.50;1.20;;;9.20;27.00;;;;;;5092074;28;20171;-74
2020/12/24 11:30:26;;;;;;;2.00;1.70;;;9.30;27.50;;;;;;5091784;28;20447;-74
2020/12/24 11:32:52;;;;;;;1.37;1.23;;;9.30;27.10;;;;;;5091901;28;20455;-74
2020/12/24 11:35:17;;;;;;;6.03;1.60;;;9.40;26.80;;;;;;5091868;28;20192;-74
2020/12/24 11:37:43;;;;;;;1.60;1.30;;;9.40;26.50;;;;;;5092160;28;20167;-74
2020/12/24 11:40:08;;;;;;;2.03;1.57;;;9.50;27.10;;;;;;5091705;28;20671;-74
2020/12/24 11:42:34;;;;;;;2.40;2.20;;;9.50;27.20;;;;;;5091715;28;20587;-75
2020/12/24 11:44:59;;;;;;;3.70;1.50;;;9.60;26.60;;;;;;5073492;28;20548;-75
2020/12/24 11:47:25;;;;;;;2.93;1.87;;;9.60;27.10;;;;;;5091774;28;20611;-74
2020/12/24 11:49:51;;;;;;;1.63;1.53;;;9.70;27.00;;;;;;5091827;28;20258;-74
2020/12/24 11:52:16;;;;;;;3.07;2.73;;;9.70;27.00;;;;;;5091914;28;20689;-73
2020/12/24 11:54:42;;;;;;;2.50;2.20;;;9.70;26.90;;;;;;5091883;28;20553;-73
2020/12/24 11:57:08;;;;;;;3.47;1.60;;;9.80;26.60;;;;;;5091961;28;20460;-73
2020/12/24 11:59:33;;;;;;;2.50;2.10;;;9.80;26.30;;;;;;5091529;28;20259;-74
2020/12/24 12:01:59;;;;;;;1.43;1.33;;;9.90;26.40;;;;;;5091450;28;20303;-74
2020/12/24 12:04:26;;;;;;;2.07;1.63;;;9.90;26.50;;;;;;5073272;28;20254;-74
2020/12/24 12:06:52;;;;;;;2.07;1.87;;;9.90;26.60;;;;;;5091224;28;20193;-73
2020/12/24 12:09:17;;;;;;;2.07;1.70;;;10.00;25.50;;;;;;5091021;28;20410;-74
2020/12/24 12:11:45;;;;;;;1.73;1.60;;;9.90;26.30;;;;;;5091087;28;20180;-74
2020/12/24 12:14:11;;;;;;;1.77;1.67;;;9.90;26.30;;;;;;5073009;28;20184;-73
2020/12/24 12:16:37;;;;;;;2.10;1.70;;;10.00;25.40;;;;;;5091021;28;20923;-74
2020/12/24 12:19:03;;;;;;;3.20;1.87;;;10.00;25.40;;;;;;5091347;28;20515;-74
2020/12/24 12:21:28;;;;;;;1.80;1.70;;;10.10;24.30;;;;;;5091008;28;20544;-74
2020/12/24 12:23:54;;;;;;;2.17;1.97;;;9.90;26.10;;;;;;5091008;28;20176;-74
2020/12/24 12:26:19;;;;;;;1.90;1.80;;;9.90;25.70;;;;;;5091142;28;20191;-74
2020/12/24 12:28:46;;;;;;;1.90;1.80;;;9.90;25.90;;;;;;5072729;28;20192;-74
2020/12/24 12:31:21;;;;;;;1.80;1.70;;;10.00;25.00;;;;;;5090380;28;20234;-74
2020/12/24 12:33:48;;;;;;;2.00;1.80;;;9.90;25.50;;;;;;5090763;28;20431;-73
2020/12/24 12:36:13;;;;;;;4.83;2.10;;;10.00;24.60;;;;;;5090880;28;20458;-74
2020/12/24 12:38:39;;;;;;;5.93;2.70;;;10.00;24.50;;;;;;5090882;28;20770;-74
2020/12/24 12:41:05;;;;;;;2.70;1.83;;;9.90;25.30;;;;;;5090767;28;20664;-74
2020/12/24 12:43:30;;;;;;;2.37;2.17;;;9.80;25.50;;;;;;5090859;28;20203;-74
2020/12/24 12:45:56;;;;;;;1.83;1.50;;;9.70;25.50;;;;;;5091321;28;20584;-73
2020/12/24 12:48:21;;;;;;;1.90;1.80;;;9.60;25.90;;;;;;5090802;28;20624;-74
2020/12/24 12:50:48;;;;;;;2.17;1.87;;;9.60;26.00;;;;;;5072529;28;20186;-74
2020/12/24 12:53:14;;;;;;;1.63;1.53;;;9.50;26.10;;;;;;5090705;28;20256;-74
2020/12/24 12:55:40;;;;;;;2.20;1.83;;;9.40;26.10;;;;;;5090895;28;20446;-74
2020/12/24 12:58:06;;;;;;;1.60;1.50;;;9.40;26.70;;;;;;5090729;28;20470;-75